Terminal Aerodrome Forecast
Issued by NWS

Home | Current Version | Previous Version | Text Only | Print | Product List | Glossary On
Versions: 1 2 3 4 5 6 7 8 9 10 11 12 13 14 15 16 17 18 19 20 21
110
FTUS43 KAPX 271834 AAE
TAFAPN
TAF AMD
KAPN 271834Z 2719/2818 18020G35KT P6SM VCTS SCT020 BKN040CB
     FM272000 20015G25KT P6SM SCT020 BKN040
     FM280100 24010G20KT P6SM BKN030
     FM280500 24012KT P6SM BKN040
     FM281100 22010G15KT P6SM SCT045=

USA.gov is the U.S. government's official web portal to all federal, state and local government web resources and services.